createdAt,value
2022-12-29T00:01:43.229Z,41.51
2022-12-29T00:04:15.017Z,40.83
2022-12-29T00:06:43.162Z,40.94
2022-12-29T00:09:13.665Z,41.19
2022-12-29T00:11:40.829Z,41.40
2022-12-29T00:14:28.024Z,40.94
2022-12-29T00:16:55.492Z,41.07
2022-12-29T00:19:41.815Z,40.48
2022-12-29T00:22:29.050Z,40.89
2022-12-29T00:25:15.168Z,40.33
2022-12-29T00:28:06.667Z,40.49
2022-12-29T00:30:53.852Z,41.02
2022-12-29T00:33:40.495Z,41.29
2022-12-29T00:36:08.979Z,41.00
2022-12-29T00:38:56.770Z,40.78
2022-12-29T00:41:42.662Z,40.59
2022-12-29T00:44:11.597Z,40.59
2022-12-29T00:46:39.176Z,40.22
2022-12-29T00:49:25.752Z,39.90
2022-12-29T00:51:53.319Z,39.38
2022-12-29T00:54:20.563Z,39.23
2022-12-29T00:56:48.670Z,39.76
2022-12-29T00:59:18.110Z,40.23
2022-12-29T01:01:46.191Z,40.23
2022-12-29T01:04:13.576Z,40.14
2022-12-29T01:06:41.897Z,39.99
2022-12-29T01:09:28.297Z,40.01
2022-12-29T01:11:56.217Z,40.09
2022-12-29T01:14:23.807Z,40.18
2022-12-29T01:16:51.215Z,40.20
2022-12-29T01:19:19.001Z,40.36
2022-12-29T01:21:46.569Z,40.04
2022-12-29T01:24:14.373Z,40.99
2022-12-29T01:26:41.883Z,41.55
2022-12-29T01:29:09.246Z,41.17
2022-12-29T01:31:36.563Z,40.75
2022-12-29T01:34:04.321Z,40.27
2022-12-29T01:36:33.240Z,40.39
2022-12-29T01:39:00.448Z,40.74
2022-12-29T01:41:28.209Z,41.04
2022-12-29T01:44:00.210Z,40.77
2022-12-29T01:46:29.365Z,40.24
2022-12-29T01:49:00.700Z,40.42
2022-12-29T01:51:28.182Z,40.35
2022-12-29T01:53:55.473Z,40.08
2022-12-29T01:56:23.256Z,40.00
2022-12-29T01:58:53.369Z,40.38
2022-12-29T02:01:20.624Z,40.72
2022-12-29T02:03:48.563Z,40.09
2022-12-29T02:06:17.296Z,40.00
2022-12-29T02:08:46.380Z,39.71
2022-12-29T02:11:13.928Z,40.29
2022-12-29T02:13:41.731Z,39.75
2022-12-29T02:16:08.939Z,40.10
2022-12-29T02:18:51.719Z,40.19
2022-12-29T02:21:35.801Z,39.26
2022-12-29T02:24:12.145Z,39.00
2022-12-29T02:26:59.832Z,39.36
2022-12-29T02:29:39.117Z,39.21
2022-12-29T02:32:08.774Z,39.68
2022-12-29T02:34:38.871Z,40.10
2022-12-29T02:37:16.375Z,40.50
2022-12-29T02:39:47.656Z,39.99
2022-12-29T02:42:17.582Z,39.54
2022-12-29T02:45:18.159Z,39.70
2022-12-29T02:48:04.388Z,39.63
2022-12-29T02:50:36.329Z,39.60
2022-12-29T02:53:05.797Z,39.31
2022-12-29T02:55:35.056Z,39.70
2022-12-29T02:58:14.522Z,40.03
2022-12-29T03:00:46.533Z,40.01
2022-12-29T03:03:23.111Z,39.60
2022-12-29T03:06:08.875Z,39.61
2022-12-29T03:08:36.387Z,40.11
2022-12-29T03:11:05.301Z,39.77
2022-12-29T03:14:04.877Z,39.24
2022-12-29T03:16:35.823Z,41.68
2022-12-29T03:19:06.198Z,43.70
2022-12-29T03:21:57.765Z,44.75
2022-12-29T03:24:26.877Z,46.94
2022-12-29T03:26:56.256Z,47.98
2022-12-29T03:29:23.481Z,49.50
2022-12-29T03:31:51.061Z,48.51
2022-12-29T03:34:19.046Z,47.81
2022-12-29T03:36:51.165Z,46.30
2022-12-29T03:39:18.657Z,48.23
2022-12-29T03:41:46.217Z,49.50
2022-12-29T03:44:14.230Z,50.89
2022-12-29T03:46:41.942Z,52.36
2022-12-29T03:49:09.400Z,52.88
2022-12-29T03:51:36.655Z,53.11
2022-12-29T03:54:06.040Z,52.74
2022-12-29T03:56:33.450Z,52.38
2022-12-29T03:59:02.458Z,50.40
2022-12-29T04:01:30.173Z,49.99
2022-12-29T04:03:57.735Z,49.71
2022-12-29T04:06:24.925Z,50.84
2022-12-29T04:08:52.404Z,52.81
2022-12-29T04:11:20.708Z,52.83
2022-12-29T04:13:48.060Z,52.36
2022-12-29T04:16:15.782Z,50.70
2022-12-29T04:18:43.369Z,49.77
2022-12-29T04:21:10.710Z,50.69
2022-12-29T04:23:40.156Z,51.03
2022-12-29T04:26:10.723Z,51.18
2022-12-29T04:28:38.901Z,50.99
2022-12-29T04:31:06.872Z,50.13
2022-12-29T04:33:35.127Z,48.78
2022-12-29T04:36:02.666Z,48.04
2022-12-29T04:38:29.930Z,47.02
2022-12-29T04:40:59.807Z,47.40
2022-12-29T04:43:27.613Z,49.65
2022-12-29T04:45:56.153Z,48.23
2022-12-29T04:48:23.876Z,49.22
2022-12-29T04:50:51.566Z,48.03
2022-12-29T04:53:18.917Z,48.05
2022-12-29T04:55:49.558Z,47.47
2022-12-29T04:58:22.339Z,46.72
2022-12-29T05:00:51.381Z,48.51
2022-12-29T05:03:19.115Z,49.05
2022-12-29T05:05:46.508Z,50.52
2022-12-29T05:08:14.054Z,49.04
2022-12-29T05:10:44.750Z,49.42
2022-12-29T05:13:12.342Z,51.68
2022-12-29T05:15:40.201Z,52.20
2022-12-29T05:18:07.561Z,51.62
2022-12-29T05:20:34.830Z,51.87
2022-12-29T05:23:03.518Z,50.22
2022-12-29T05:25:30.797Z,52.65
2022-12-29T05:27:58.455Z,52.18
2022-12-29T05:30:26.454Z,53.65
2022-12-29T05:32:53.840Z,53.05
2022-12-29T05:35:21.074Z,52.77
2022-12-29T05:37:48.533Z,54.94
2022-12-29T05:40:15.876Z,54.83
2022-12-29T05:42:45.277Z,57.78
2022-12-29T05:45:13.154Z,56.73
2022-12-29T05:47:41.528Z,57.07
2022-12-29T05:50:08.907Z,56.17
2022-12-29T05:52:39.413Z,57.99
2022-12-29T05:55:07.192Z,56.34
2022-12-29T05:57:35.385Z,56.08
2022-12-29T06:00:04.231Z,56.59
2022-12-29T06:02:41.916Z,56.41
2022-12-29T06:05:09.706Z,57.12
2022-12-29T06:07:37.330Z,58.30
2022-12-29T06:10:06.039Z,55.94
2022-12-29T06:12:33.973Z,55.31
2022-12-29T06:15:01.232Z,54.65
2022-12-29T06:17:28.625Z,56.13
2022-12-29T06:19:56.150Z,56.23
2022-12-29T06:22:23.443Z,54.92
2022-12-29T06:24:50.644Z,55.11
2022-12-29T06:27:20.154Z,56.40
2022-12-29T06:29:48.256Z,57.87
2022-12-29T06:32:15.491Z,56.67
2022-12-29T06:34:45.718Z,59.23
2022-12-29T06:37:14.178Z,57.49
2022-12-29T06:39:41.638Z,56.64
2022-12-29T06:42:10.444Z,55.73
2022-12-29T06:44:38.393Z,56.83
2022-12-29T06:47:05.821Z,55.08
2022-12-29T06:49:33.259Z,56.07
2022-12-29T06:52:01.730Z,55.21
2022-12-29T06:54:28.890Z,57.43
2022-12-29T06:56:56.366Z,56.30
2022-12-29T06:59:23.578Z,55.49
2022-12-29T07:01:50.959Z,55.23
2022-12-29T07:04:18.694Z,54.27
2022-12-29T07:06:45.860Z,53.44
2022-12-29T07:09:13.069Z,54.93
2022-12-29T07:11:40.524Z,53.94
2022-12-29T07:14:07.681Z,53.69
2022-12-29T07:16:35.462Z,55.05
2022-12-29T07:19:02.954Z,57.92
2022-12-29T07:21:30.180Z,55.75
2022-12-29T07:23:57.342Z,55.32
2022-12-29T07:26:25.269Z,56.18
2022-12-29T07:28:52.448Z,55.31
2022-12-29T07:31:20.487Z,54.28
2022-12-29T07:33:48.732Z,56.68
2022-12-29T07:36:18.011Z,57.04
2022-12-29T07:38:45.428Z,56.29
2022-12-29T07:41:12.951Z,54.92
2022-12-29T07:43:40.394Z,56.15
2022-12-29T07:46:14.562Z,56.20
2022-12-29T07:48:57.495Z,57.52
2022-12-29T07:51:24.708Z,55.63
2022-12-29T07:53:51.903Z,54.91
2022-12-29T07:56:19.333Z,54.17
2022-12-29T07:58:46.501Z,55.26
2022-12-29T08:01:13.686Z,52.80
2022-12-29T08:03:42.356Z,54.10
2022-12-29T08:06:13.827Z,51.91
2022-12-29T08:08:41.393Z,52.14
2022-12-29T08:11:08.550Z,52.22
2022-12-29T08:13:35.719Z,53.71
2022-12-29T08:16:03.326Z,53.55
2022-12-29T08:18:30.545Z,54.95
2022-12-29T08:21:02.279Z,52.38
2022-12-29T08:23:29.751Z,56.12
2022-12-29T08:26:00.552Z,56.02
2022-12-29T08:28:27.966Z,54.79
2022-12-29T08:30:57.978Z,55.75
2022-12-29T08:33:25.300Z,55.52
2022-12-29T08:35:52.457Z,54.14
2022-12-29T08:38:19.896Z,53.86
2022-12-29T08:40:47.064Z,53.29
2022-12-29T08:43:18.483Z,54.20
2022-12-29T08:45:46.179Z,55.27
2022-12-29T08:48:13.456Z,55.25
2022-12-29T08:50:40.663Z,56.63
2022-12-29T08:53:08.108Z,57.24
2022-12-29T08:55:35.387Z,55.93
2022-12-29T08:58:02.566Z,54.63
2022-12-29T09:00:30.072Z,54.30
2022-12-29T09:02:57.603Z,54.59
2022-12-29T09:05:24.934Z,54.12
2022-12-29T09:07:52.397Z,54.29
2022-12-29T09:10:19.608Z,52.40
2022-12-29T09:12:47.900Z,52.41
2022-12-29T09:15:16.596Z,53.78
2022-12-29T09:17:46.641Z,53.68
2022-12-29T09:20:14.677Z,51.62
2022-12-29T09:22:42.442Z,51.34
2022-12-29T09:25:10.225Z,52.26
2022-12-29T09:27:37.897Z,51.02
2022-12-29T09:30:06.963Z,50.14
2022-12-29T09:32:36.042Z,49.18
2022-12-29T09:35:05.445Z,52.99
2022-12-29T09:37:32.886Z,54.86
2022-12-29T09:40:00.383Z,53.12
2022-12-29T09:42:54.223Z,53.81
2022-12-29T09:45:24.293Z,50.81
2022-12-29T09:47:51.846Z,52.04
2022-12-29T09:50:19.011Z,53.79
2022-12-29T09:53:06.304Z,52.79
2022-12-29T09:55:38.233Z,52.31
2022-12-29T09:58:15.326Z,54.19
2022-12-29T10:00:54.575Z,55.12
2022-12-29T10:03:26.288Z,52.44
2022-12-29T10:06:03.986Z,51.96
2022-12-29T10:08:36.391Z,51.36
2022-12-29T10:11:22.560Z,51.70
2022-12-29T10:13:55.845Z,53.96
2022-12-29T10:16:44.989Z,55.15
2022-12-29T10:19:28.273Z,53.57
2022-12-29T10:21:58.500Z,51.64
2022-12-29T10:24:25.949Z,51.63
2022-12-29T10:26:53.197Z,52.97
2022-12-29T10:29:21.448Z,53.44
2022-12-29T10:31:50.308Z,50.85
2022-12-29T10:34:23.668Z,50.33
2022-12-29T10:37:14.953Z,51.75
2022-12-29T10:39:44.453Z,49.87
2022-12-29T10:42:16.763Z,47.68
2022-12-29T10:44:43.921Z,48.02
2022-12-29T10:47:13.495Z,50.38
2022-12-29T10:49:41.858Z,49.56
2022-12-29T10:52:10.757Z,50.33
2022-12-29T10:55:04.668Z,52.85
2022-12-29T10:57:33.171Z,52.59
2022-12-29T11:00:00.879Z,54.05
2022-12-29T11:02:34.192Z,52.99
2022-12-29T11:05:05.850Z,51.54
2022-12-29T11:07:32.985Z,48.90
2022-12-29T11:10:18.941Z,49.88
2022-12-29T11:13:06.522Z,49.22
2022-12-29T11:15:44.240Z,50.49
2022-12-29T11:18:22.577Z,48.64
2022-12-29T11:20:50.899Z,48.83
2022-12-29T11:23:35.310Z,50.29
2022-12-29T11:26:08.822Z,53.02
2022-12-29T11:28:36.498Z,52.97
2022-12-29T11:31:04.324Z,52.20
2022-12-29T11:33:38.603Z,52.24
2022-12-29T11:36:16.484Z,51.51
2022-12-29T11:38:47.216Z,50.25
2022-12-29T11:41:14.961Z,47.76
2022-12-29T11:43:43.114Z,48.21
2022-12-29T11:46:19.298Z,49.31
2022-12-29T11:48:47.228Z,51.30
2022-12-29T11:51:14.471Z,55.58
2022-12-29T11:53:46.059Z,53.99
2022-12-29T11:56:14.348Z,52.69
2022-12-29T11:58:41.697Z,55.05
2022-12-29T12:01:17.576Z,53.01
2022-12-29T12:04:00.503Z,54.25
2022-12-29T12:06:28.371Z,51.58
2022-12-29T12:09:07.252Z,51.16
2022-12-29T12:11:39.064Z,50.78
2022-12-29T12:14:18.869Z,50.69
2022-12-29T12:16:49.637Z,50.01
2022-12-29T12:19:17.125Z,52.53
2022-12-29T12:21:46.168Z,50.56
2022-12-29T12:24:21.397Z,53.12
2022-12-29T12:26:48.840Z,54.03
2022-12-29T12:29:17.795Z,54.78
2022-12-29T12:31:47.074Z,54.47
2022-12-29T12:34:26.004Z,54.78
2022-12-29T12:37:12.054Z,51.17
2022-12-29T12:39:42.280Z,52.67
2022-12-29T12:42:12.582Z,52.93
2022-12-29T12:44:51.582Z,52.33
2022-12-29T12:47:28.969Z,51.14
2022-12-29T12:50:12.469Z,49.63
2022-12-29T12:52:50.442Z,50.19
2022-12-29T12:55:17.911Z,50.09
2022-12-29T12:58:06.628Z,48.68
2022-12-29T13:00:35.834Z,47.46
2022-12-29T13:03:06.831Z,48.37
2022-12-29T13:05:37.698Z,47.14
2022-12-29T13:08:08.194Z,48.44
2022-12-29T13:10:35.602Z,47.84
2022-12-29T13:13:21.456Z,46.00
2022-12-29T13:15:57.578Z,46.89
2022-12-29T13:18:30.411Z,45.91
2022-12-29T13:21:03.888Z,46.02
2022-12-29T13:23:37.344Z,44.84
2022-12-29T13:26:16.493Z,47.37
2022-12-29T13:28:55.253Z,47.71
2022-12-29T13:31:31.760Z,50.02
2022-12-29T13:34:07.819Z,48.58
2022-12-29T13:36:38.158Z,47.67
2022-12-29T13:39:06.949Z,46.78
2022-12-29T13:41:37.359Z,46.71
2022-12-29T13:44:04.699Z,45.44
2022-12-29T13:46:36.216Z,45.81
2022-12-29T13:49:13.696Z,46.61
2022-12-29T13:51:45.585Z,44.33
2022-12-29T13:54:31.938Z,44.66
2022-12-29T13:57:04.988Z,46.58
2022-12-29T13:59:42.687Z,48.96
2022-12-29T14:02:19.151Z,49.32
2022-12-29T14:04:56.579Z,47.93
2022-12-29T14:07:23.858Z,48.18
2022-12-29T14:09:52.423Z,47.47
2022-12-29T14:12:25.354Z,48.24
2022-12-29T14:14:52.828Z,50.04
2022-12-29T14:17:20.912Z,48.26
2022-12-29T14:19:48.143Z,48.98
2022-12-29T14:22:16.515Z,49.85
2022-12-29T14:24:44.674Z,50.50
2022-12-29T14:27:12.137Z,49.42
2022-12-29T14:29:39.900Z,50.10
2022-12-29T14:32:25.381Z,48.39
2022-12-29T14:34:55.731Z,48.91
2022-12-29T14:37:24.374Z,50.09
2022-12-29T14:39:54.148Z,49.02
2022-12-29T14:42:23.682Z,49.13
2022-12-29T14:44:50.939Z,47.37
2022-12-29T14:47:21.006Z,49.70
2022-12-29T14:49:48.543Z,47.16
2022-12-29T14:52:26.260Z,48.45
2022-12-29T14:55:12.508Z,47.15
2022-12-29T14:57:42.979Z,49.09
2022-12-29T15:00:17.823Z,49.05
2022-12-29T15:02:46.498Z,49.94
2022-12-29T15:05:33.053Z,51.63
2022-12-29T15:08:00.531Z,52.04
2022-12-29T15:10:28.200Z,52.27
2022-12-29T15:12:55.898Z,51.73
2022-12-29T15:15:24.550Z,50.13
2022-12-29T15:17:52.029Z,50.22
2022-12-29T15:20:26.949Z,48.70
2022-12-29T15:23:02.124Z,47.52
2022-12-29T15:25:29.279Z,50.93
2022-12-29T15:28:04.090Z,50.16
2022-12-29T15:30:31.278Z,51.41
2022-12-29T15:32:58.744Z,48.43
2022-12-29T15:35:27.466Z,50.34
2022-12-29T15:37:54.621Z,48.42
2022-12-29T15:40:26.985Z,51.08
2022-12-29T15:42:54.162Z,53.00
2022-12-29T15:45:21.677Z,54.87
2022-12-29T15:47:50.308Z,53.22
2022-12-29T15:50:33.791Z,51.11
2022-12-29T15:53:01.247Z,51.38
2022-12-29T15:55:30.444Z,53.42
2022-12-29T15:57:58.936Z,54.25
2022-12-29T16:00:30.329Z,54.57
2022-12-29T16:02:58.482Z,53.38
2022-12-29T16:05:25.935Z,53.56
2022-12-29T16:07:54.086Z,53.87
2022-12-29T16:10:23.721Z,53.81
2022-12-29T16:12:50.912Z,54.12
2022-12-29T16:15:18.051Z,53.61
2022-12-29T16:17:54.357Z,54.69
2022-12-29T16:20:22.781Z,55.00
2022-12-29T16:22:51.748Z,54.24
2022-12-29T16:25:32.702Z,52.90
2022-12-29T16:28:00.670Z,50.71
2022-12-29T16:30:34.080Z,53.08
2022-12-29T16:33:02.837Z,52.68
2022-12-29T16:35:31.126Z,53.30
2022-12-29T16:38:27.844Z,53.42
2022-12-29T16:40:56.153Z,52.06
2022-12-29T16:43:30.549Z,53.74
2022-12-29T16:46:01.015Z,53.03
2022-12-29T16:48:38.050Z,55.19
2022-12-29T16:51:06.674Z,55.24
2022-12-29T16:53:37.111Z,53.47
2022-12-29T16:56:10.212Z,53.23
2022-12-29T16:58:37.994Z,54.09
2022-12-29T17:01:06.787Z,55.41
2022-12-29T17:03:35.985Z,54.85
2022-12-29T17:06:03.703Z,55.98
2022-12-29T17:08:39.266Z,55.46
2022-12-29T17:11:28.131Z,56.26
2022-12-29T17:13:55.304Z,55.54
2022-12-29T17:16:22.745Z,55.19
2022-12-29T17:18:49.938Z,55.62
2022-12-29T17:21:17.168Z,54.75
2022-12-29T17:23:44.661Z,55.52
2022-12-29T17:26:11.822Z,56.10
2022-12-29T17:28:39.982Z,54.19
2022-12-29T17:31:07.513Z,54.96
2022-12-29T17:33:38.645Z,55.47
2022-12-29T17:36:05.924Z,56.08
2022-12-29T17:38:35.441Z,55.00
2022-12-29T17:41:02.633Z,56.58
2022-12-29T17:43:36.336Z,55.84
2022-12-29T17:46:06.073Z,54.93
2022-12-29T17:48:33.298Z,52.25
2022-12-29T17:51:00.459Z,52.28
2022-12-29T17:53:28.557Z,55.64
2022-12-29T17:55:55.788Z,55.45
2022-12-29T17:58:23.592Z,54.83
2022-12-29T18:01:00.989Z,56.42
2022-12-29T18:03:30.072Z,55.85
2022-12-29T18:05:57.705Z,57.46
2022-12-29T18:08:24.986Z,57.89
2022-12-29T18:10:53.913Z,56.64
2022-12-29T18:13:22.684Z,56.16
2022-12-29T18:15:50.456Z,57.86
2022-12-29T18:18:19.178Z,55.94
2022-12-29T18:20:47.203Z,55.66
2022-12-29T18:23:20.582Z,57.09
2022-12-29T18:25:49.956Z,57.06
2022-12-29T18:28:17.194Z,57.18
2022-12-29T18:30:44.439Z,55.53
2022-12-29T18:33:21.308Z,56.75
2022-12-29T18:35:49.814Z,54.91
2022-12-29T18:38:17.538Z,56.66
2022-12-29T18:40:45.084Z,57.62
2022-12-29T18:43:15.889Z,57.91
2022-12-29T18:45:45.995Z,60.02
2022-12-29T18:48:13.864Z,59.13
2022-12-29T18:50:41.675Z,59.40
2022-12-29T18:53:15.953Z,57.99
2022-12-29T18:55:43.127Z,57.84
2022-12-29T18:58:10.585Z,58.46
2022-12-29T19:00:38.206Z,59.90
2022-12-29T19:03:07.780Z,57.72
2022-12-29T19:05:39.011Z,56.25
2022-12-29T19:08:06.544Z,57.42
2022-12-29T19:10:34.020Z,57.71
2022-12-29T19:13:02.927Z,58.18
2022-12-29T19:15:32.270Z,57.03
2022-12-29T19:20:50.845Z,55.62
2022-12-29T19:23:19.414Z,57.07
2022-12-29T19:25:47.006Z,57.37
2022-12-29T19:28:21.471Z,57.22
2022-12-29T19:30:52.181Z,57.33
2022-12-29T19:33:21.526Z,59.64
2022-12-29T19:35:49.873Z,59.97
2022-12-29T19:38:17.499Z,57.51
2022-12-29T19:40:46.930Z,58.76
2022-12-29T19:43:14.257Z,58.46
2022-12-29T19:45:41.959Z,56.21
2022-12-29T19:48:12.350Z,58.03
2022-12-29T19:50:39.671Z,56.98
2022-12-29T19:53:07.104Z,57.44
2022-12-29T19:55:34.951Z,56.83
2022-12-29T19:58:02.698Z,57.92
2022-12-29T20:00:32.483Z,57.51
2022-12-29T20:03:00.398Z,59.30
2022-12-29T20:05:28.209Z,60.35
2022-12-29T20:07:55.394Z,60.69
2022-12-29T20:10:22.874Z,59.92
2022-12-29T20:12:50.319Z,58.79
2022-12-29T20:15:17.640Z,58.51
2022-12-29T20:18:12.468Z,56.67
2022-12-29T20:20:33.736Z,56.87
2022-12-29T20:23:01.280Z,57.42
2022-12-29T20:25:46.388Z,57.90
2022-12-29T20:28:15.559Z,56.26
2022-12-29T20:30:44.050Z,59.90
2022-12-29T20:33:11.299Z,60.97
2022-12-29T20:35:39.477Z,60.94
2022-12-29T20:38:06.857Z,58.21
2022-12-29T20:40:38.011Z,57.04
2022-12-29T20:43:10.056Z,57.54
2022-12-29T20:45:37.670Z,58.29
2022-12-29T20:48:05.032Z,54.46
2022-12-29T20:50:32.513Z,55.36
2022-12-29T20:52:59.754Z,55.53
2022-12-29T20:55:27.008Z,56.37
2022-12-29T20:58:23.234Z,53.26
2022-12-29T21:00:42.348Z,52.47
2022-12-29T21:03:10.388Z,52.05
2022-12-29T21:05:38.197Z,50.61
2022-12-29T21:08:05.616Z,49.40
2022-12-29T21:10:33.710Z,48.54
2022-12-29T21:13:01.653Z,47.24
2022-12-29T21:15:30.045Z,47.51
2022-12-29T21:17:57.501Z,46.90
2022-12-29T21:20:32.112Z,46.63
2022-12-29T21:23:01.327Z,51.62
2022-12-29T21:25:37.238Z,50.70
2022-12-29T21:28:08.484Z,52.59
2022-12-29T21:30:35.965Z,54.55
2022-12-29T21:33:03.453Z,54.26
2022-12-29T21:35:31.072Z,56.50
2022-12-29T21:37:58.374Z,57.74
2022-12-29T21:40:26.241Z,58.91
2022-12-29T21:42:54.481Z,59.67
2022-12-29T21:45:28.574Z,60.07
2022-12-29T21:48:17.480Z,59.95
2022-12-29T21:51:04.207Z,56.28
2022-12-29T21:53:43.899Z,53.63
2022-12-29T21:56:11.096Z,55.96
2022-12-29T21:58:57.907Z,54.96
2022-12-29T22:01:44.310Z,54.76
2022-12-29T22:04:31.375Z,58.79
2022-12-29T22:07:17.264Z,55.89
2022-12-29T22:10:03.725Z,54.20
2022-12-29T22:12:50.404Z,54.54
2022-12-29T22:15:17.990Z,52.73
2022-12-29T22:17:49.242Z,51.63
2022-12-29T22:20:17.352Z,50.48
2022-12-29T22:22:44.885Z,48.93
2022-12-29T22:25:12.397Z,47.72
2022-12-29T22:27:39.618Z,46.61
2022-12-29T22:30:07.493Z,45.94
2022-12-29T22:32:34.754Z,45.16
2022-12-29T22:35:08.008Z,47.40
2022-12-29T22:37:36.551Z,48.60
2022-12-29T22:40:07.647Z,48.76
2022-12-29T22:42:34.944Z,49.99
2022-12-29T22:45:05.454Z,55.04
2022-12-29T22:47:32.647Z,55.52
2022-12-29T22:50:00.420Z,58.25
2022-12-29T22:52:33.758Z,57.75
2022-12-29T22:55:06.484Z,58.64
2022-12-29T22:57:34.960Z,56.44
2022-12-29T23:00:02.530Z,55.73
2022-12-29T23:02:30.499Z,56.72
2022-12-29T23:05:03.473Z,60.21
2022-12-29T23:07:32.827Z,59.29
2022-12-29T23:10:00.476Z,59.59
2022-12-29T23:12:32.150Z,58.59
2022-12-29T23:14:59.744Z,57.37
2022-12-29T23:17:26.997Z,57.44
2022-12-29T23:19:54.395Z,56.41
2022-12-29T23:22:26.000Z,58.64
2022-12-29T23:24:53.169Z,58.30
2022-12-29T23:27:20.365Z,59.46
2022-12-29T23:29:48.066Z,57.71
2022-12-29T23:32:15.664Z,58.00
2022-12-29T23:34:43.084Z,57.29
2022-12-29T23:37:10.613Z,56.27
2022-12-29T23:39:37.939Z,56.85
2022-12-29T23:42:05.455Z,57.16
2022-12-29T23:44:33.102Z,60.52
2022-12-29T23:47:00.321Z,61.66
2022-12-29T23:49:27.530Z,62.62
2022-12-29T23:51:56.922Z,61.30
2022-12-29T23:54:25.549Z,59.47
2022-12-29T23:56:54.757Z,57.54
2022-12-29T23:59:24.908Z,59.29
